createdAt,value
2023-04-12T00:01:22.171Z,41.85
2023-04-12T00:06:27.750Z,38.47
2023-04-12T00:11:32.233Z,37.17
2023-04-12T00:16:36.294Z,37.25
2023-04-12T00:21:39.025Z,40.63
2023-04-12T00:26:41.699Z,45.15
2023-04-12T00:31:44.388Z,36.28
2023-04-12T00:36:47.118Z,36.50
2023-04-12T00:41:49.857Z,37.75
2023-04-12T00:46:52.582Z,37.65
2023-04-12T00:51:55.503Z,37.80
2023-04-12T00:57:00.038Z,35.58
2023-04-12T01:02:03.389Z,35.17
2023-04-12T01:07:21.692Z,36.60
2023-04-12T01:12:39.351Z,43.00
2023-04-12T01:18:02.956Z,39.08
2023-04-12T01:23:43.060Z,38.45
2023-04-12T01:28:47.052Z,38.78
2023-04-12T01:33:52.090Z,41.60
2023-04-12T01:38:55.837Z,42.40
2023-04-12T01:43:58.644Z,45.33
2023-04-12T01:49:03.422Z,47.15
2023-04-12T01:54:13.701Z,44.78
2023-04-12T01:59:17.999Z,43.78
2023-04-12T02:04:22.093Z,46.47
2023-04-12T02:09:24.783Z,52.13
2023-04-12T02:14:27.707Z,38.85
2023-04-12T02:19:30.617Z,39.92
2023-04-12T02:24:33.792Z,40.03
2023-04-12T02:29:36.356Z,44.80
2023-04-12T02:34:40.085Z,40.55
2023-04-12T02:39:57.088Z,40.78
2023-04-12T02:45:01.324Z,37.42
2023-04-12T02:50:05.015Z,40.80
2023-04-12T02:55:13.270Z,44.55
2023-04-12T03:00:16.946Z,34.95
2023-04-12T03:05:23.295Z,50.08
2023-04-12T03:10:27.327Z,39.33
2023-04-12T03:15:39.844Z,42.67
2023-04-12T03:20:46.015Z,44.70
2023-04-12T03:25:50.936Z,43.70
2023-04-12T03:31:13.791Z,41.53
2023-04-12T03:36:24.273Z,39.70
2023-04-12T03:41:46.661Z,43.42
2023-04-12T03:46:50.527Z,47.20
2023-04-12T03:51:53.549Z,46.83
2023-04-12T03:56:56.862Z,44.88
2023-04-12T04:02:27.954Z,46.70
2023-04-12T04:07:33.535Z,42.97
2023-04-12T04:12:36.226Z,65.00
2023-04-12T04:17:40.467Z,53.65
2023-04-12T04:22:44.782Z,55.25
2023-04-12T04:27:49.642Z,62.15
2023-04-12T04:32:53.020Z,78.60
2023-04-12T04:37:59.019Z,67.85
2023-04-12T04:43:03.189Z,59.75
2023-04-12T04:48:11.788Z,63.47
2023-04-12T04:53:16.547Z,65.93
2023-04-12T04:58:19.300Z,69.00
2023-04-12T05:03:22.071Z,71.55
2023-04-12T05:08:25.267Z,54.95
2023-04-12T05:13:27.932Z,49.70
2023-04-12T05:18:30.702Z,36.45
2023-04-12T05:23:42.860Z,37.42
2023-04-12T05:28:47.721Z,33.13
2023-04-12T05:33:51.080Z,34.65
2023-04-12T05:38:54.886Z,36.08
2023-04-12T05:43:57.742Z,38.63
2023-04-12T05:49:00.729Z,30.17
2023-04-12T05:54:07.617Z,39.33
2023-04-12T05:59:12.530Z,32.83
2023-04-12T06:04:15.554Z,26.90
2023-04-12T06:09:19.365Z,29.42
2023-04-12T06:14:21.991Z,37.35
2023-04-12T06:19:24.668Z,25.60
2023-04-12T06:24:27.265Z,24.92
2023-04-12T06:29:30.578Z,33.85
2023-04-12T06:34:34.852Z,22.05
2023-04-12T06:39:42.818Z,24.05
2023-04-12T06:44:45.767Z,19.83
2023-04-12T06:49:48.555Z,24.10
2023-04-12T06:54:51.171Z,18.73
2023-04-12T06:59:53.775Z,15.52
2023-04-12T07:04:56.397Z,12.68
2023-04-12T07:10:00.481Z,14.10
2023-04-12T07:15:03.234Z,11.48
2023-04-12T07:20:06.189Z,13.65
2023-04-12T07:25:10.922Z,14.45
2023-04-12T07:30:14.555Z,19.45
2023-04-12T07:35:17.260Z,17.50
2023-04-12T07:40:20.562Z,18.63
2023-04-12T07:45:23.317Z,28.27
2023-04-12T07:50:26.104Z,15.18
2023-04-12T07:55:28.734Z,31.45
2023-04-12T08:00:32.689Z,15.95
2023-04-12T08:05:35.383Z,18.35
2023-04-12T08:10:40.583Z,16.48
2023-04-12T08:15:47.662Z,16.08
2023-04-12T08:20:50.694Z,20.00
2023-04-12T08:26:00.124Z,23.08
2023-04-12T08:31:03.049Z,17.48
2023-04-12T08:36:06.271Z,16.48
2023-04-12T08:41:08.936Z,17.42
2023-04-12T08:46:15.992Z,15.77
2023-04-12T08:51:20.233Z,18.05
2023-04-12T08:56:24.054Z,17.27
2023-04-12T09:01:27.278Z,19.85
2023-04-12T09:06:30.050Z,13.75
2023-04-12T09:11:32.830Z,12.85
2023-04-12T09:16:36.291Z,19.65
2023-04-12T09:21:53.370Z,16.08
2023-04-12T09:27:06.487Z,16.40
2023-04-12T09:32:09.944Z,15.90
2023-04-12T09:37:18.275Z,11.57
2023-04-12T09:47:42.014Z,16.95
2023-04-12T09:52:44.958Z,11.68
2023-04-12T09:57:51.098Z,13.65
2023-04-12T10:02:55.926Z,17.65
2023-04-12T10:07:59.037Z,13.95
2023-04-12T10:13:06.906Z,11.98
2023-04-12T10:18:11.866Z,12.52
2023-04-12T10:23:14.837Z,14.60
2023-04-12T10:28:21.774Z,12.05
2023-04-12T10:33:30.903Z,13.50
2023-04-12T10:38:48.849Z,12.80
2023-04-12T10:44:28.917Z,12.27
2023-04-12T10:49:32.475Z,11.00
2023-04-12T10:54:36.004Z,14.23
2023-04-12T10:59:57.513Z,13.85
2023-04-12T11:05:10.943Z,12.90
2023-04-12T11:10:47.113Z,12.60
2023-04-12T11:16:06.884Z,12.82
2023-04-12T11:21:10.540Z,11.05
2023-04-12T11:26:13.424Z,11.43
2023-04-12T11:31:20.460Z,12.27
2023-04-12T11:36:23.185Z,17.17
2023-04-12T11:41:26.039Z,13.27
2023-04-12T11:46:34.359Z,11.90
2023-04-12T11:51:36.993Z,14.50
2023-04-12T11:56:40.450Z,13.48
2023-04-12T12:01:43.189Z,11.52
2023-04-12T12:06:47.341Z,16.25
2023-04-12T12:11:51.441Z,15.65
2023-04-12T12:16:59.538Z,11.57
2023-04-12T12:22:13.033Z,20.98
2023-04-12T12:27:23.479Z,12.52
2023-04-12T12:32:27.403Z,9.93
2023-04-12T12:37:31.164Z,17.83
2023-04-12T12:42:36.685Z,10.65
2023-04-12T12:47:52.062Z,15.52
2023-04-12T12:52:56.173Z,13.30
2023-04-12T12:58:06.604Z,18.40
2023-04-12T13:08:13.095Z,16.80
2023-04-12T13:13:15.834Z,11.43
2023-04-12T13:18:18.582Z,13.95
2023-04-12T13:23:21.237Z,16.77
2023-04-12T13:28:23.902Z,15.48
2023-04-12T13:33:27.219Z,15.50
2023-04-12T13:38:31.387Z,9.95
2023-04-12T13:43:34.063Z,19.27
2023-04-12T13:48:37.495Z,12.77
2023-04-12T13:53:40.139Z,10.88
2023-04-12T13:58:43.298Z,14.85
2023-04-12T14:03:46.054Z,12.68
2023-04-12T14:08:48.661Z,16.00
2023-04-12T14:13:51.532Z,10.68
2023-04-12T14:18:54.138Z,10.45
2023-04-12T14:23:57.529Z,12.75
2023-04-12T14:29:00.714Z,13.75
2023-04-12T14:34:04.298Z,15.32
2023-04-12T14:39:10.440Z,9.80
2023-04-12T14:44:13.603Z,14.13
2023-04-12T14:49:16.268Z,14.57
2023-04-12T14:54:19.068Z,12.77
2023-04-12T14:59:21.838Z,23.98
2023-04-12T15:04:24.781Z,23.23
2023-04-12T15:09:28.797Z,13.75
2023-04-12T15:14:31.571Z,9.38
2023-04-12T15:19:34.202Z,12.20
2023-04-12T15:24:37.155Z,9.25
2023-04-12T15:29:40.065Z,14.23
2023-04-12T15:34:42.732Z,14.20
2023-04-12T15:39:45.741Z,14.82
2023-04-12T15:44:48.296Z,12.98
2023-04-12T15:49:51.459Z,15.60
2023-04-12T15:54:54.104Z,22.60
2023-04-12T15:59:59.506Z,17.23
2023-04-12T16:05:02.315Z,13.57
2023-04-12T16:10:06.493Z,20.25
2023-04-12T16:15:09.401Z,20.08
2023-04-12T16:20:13.523Z,28.85
2023-04-12T16:25:20.034Z,24.02
2023-04-12T16:30:23.106Z,26.63
2023-04-12T16:35:25.964Z,27.35
2023-04-12T16:40:28.883Z,33.10
2023-04-12T16:45:32.145Z,26.17
2023-04-12T16:50:34.783Z,17.08
2023-04-12T16:55:44.575Z,32.25
2023-04-12T17:00:47.203Z,31.63
2023-04-12T17:05:50.701Z,39.80
2023-04-12T17:10:54.556Z,29.45
2023-04-12T17:15:57.724Z,39.60
2023-04-12T17:21:00.710Z,40.03
2023-04-12T17:26:04.573Z,43.20
2023-04-12T17:31:08.932Z,54.40
2023-04-12T17:36:12.164Z,52.72
2023-04-12T17:41:17.682Z,65.05
2023-04-12T17:46:20.565Z,51.95
2023-04-12T17:51:23.310Z,48.17
2023-04-12T17:56:26.383Z,60.17
2023-04-12T18:01:29.067Z,46.25
2023-04-12T18:06:32.567Z,45.13
2023-04-12T18:11:38.889Z,41.95
2023-04-12T18:16:41.991Z,61.70
2023-04-12T18:21:48.506Z,45.55
2023-04-12T18:26:51.266Z,44.50
2023-04-12T18:31:53.998Z,53.90
2023-04-12T18:36:56.990Z,54.47
2023-04-12T18:42:01.553Z,64.43
2023-04-12T18:47:04.510Z,58.53
2023-04-12T18:52:07.417Z,56.92
2023-04-12T18:57:10.760Z,48.92
2023-04-12T19:02:15.219Z,41.17
2023-04-12T19:07:18.040Z,40.80
2023-04-12T19:12:21.007Z,47.13
2023-04-12T19:17:27.813Z,41.05
2023-04-12T19:22:30.920Z,58.95
2023-04-12T19:27:39.227Z,47.00
2023-04-12T19:32:42.522Z,45.38
2023-04-12T19:37:45.471Z,55.58
2023-04-12T19:42:48.458Z,46.40
2023-04-12T19:47:51.360Z,41.03
2023-04-12T19:52:54.136Z,44.45
2023-04-12T19:57:56.962Z,40.70
2023-04-12T20:02:59.636Z,43.08
2023-04-12T20:08:02.302Z,54.13
2023-04-12T20:13:08.224Z,32.67
2023-04-12T20:18:13.013Z,35.97
2023-04-12T20:23:15.698Z,39.65
2023-04-12T20:28:18.623Z,31.77
2023-04-12T20:33:22.094Z,38.55
2023-04-12T20:38:26.559Z,46.60
2023-04-12T20:43:29.184Z,35.90
2023-04-12T20:48:32.247Z,33.13
2023-04-12T20:53:36.119Z,41.55
2023-04-12T20:58:39.091Z,38.80
2023-04-12T21:03:43.433Z,34.40
2023-04-12T21:08:47.562Z,29.25
2023-04-12T21:13:50.900Z,28.40
2023-04-12T21:18:53.793Z,37.65
2023-04-12T21:23:56.549Z,28.13
2023-04-12T21:28:59.518Z,18.13
2023-04-12T21:34:02.336Z,22.25
2023-04-12T21:39:04.983Z,25.13
2023-04-12T21:44:08.017Z,20.15
2023-04-12T21:49:10.814Z,18.98
2023-04-12T21:54:13.487Z,23.75
2023-04-12T21:59:16.651Z,22.83
2023-04-12T22:04:19.401Z,17.35
2023-04-12T22:09:22.174Z,21.42
2023-04-12T22:14:24.785Z,21.80
2023-04-12T22:19:27.617Z,27.20
2023-04-12T22:24:30.695Z,23.25
2023-04-12T22:29:34.366Z,24.63
2023-04-12T22:34:39.722Z,19.25
2023-04-12T22:39:42.888Z,20.83
2023-04-12T22:44:45.519Z,21.63
2023-04-12T22:49:51.091Z,24.30
2023-04-12T22:54:53.755Z,23.48
2023-04-12T22:59:57.856Z,25.23
2023-04-12T23:05:00.923Z,21.95
2023-04-12T23:10:03.983Z,20.13
2023-04-12T23:15:07.172Z,26.92
2023-04-12T23:20:13.440Z,34.55
2023-04-12T23:25:16.180Z,32.60
2023-04-12T23:30:20.389Z,28.60
2023-04-12T23:35:23.007Z,18.50
2023-04-12T23:40:25.717Z,21.60
2023-04-12T23:45:28.357Z,24.02
2023-04-12T23:50:30.984Z,18.77
2023-04-12T23:55:33.728Z,22.08
